Time;durP1;ratioP1;P1;durP2;ratioP2;P2;SDS_P1;SDS_P2;PMS_P1;PMS_P2;Temp;Humidity;BMP_temperature;BMP_pressure;BME280_temperature;BME280_humidity;BME280_pressure;Samples;Min_cycle;Max_cycle;Signal;HPM_P1;HPM_P2
2021/03/02 00:00:50;;;;;;;20.75;12.20;;;4.30;99.90;;;;;;5084637;28;20205;-74
2021/03/02 00:03:17;;;;;;;20.15;11.45;;;4.20;99.90;;;;;;5084663;28;20258;-74
2021/03/02 00:05:47;;;;;;;20.50;11.70;;;4.20;99.90;;;;;;5084992;28;20232;-74
2021/03/02 00:08:14;;;;;;;20.63;11.85;;;4.20;99.90;;;;;;5083986;28;20228;-74
2021/03/02 00:10:42;;;;;;;25.35;11.40;;;4.20;99.90;;;;;;5090774;28;20216;-73
2021/03/02 00:13:11;;;;;;;24.33;12.60;;;4.10;99.90;;;;;;5093211;28;20200;-74
2021/03/02 00:15:38;;;;;;;21.75;11.82;;;4.10;99.90;;;;;;5088431;28;20239;-73
2021/03/02 00:18:07;;;;;;;22.30;12.35;;;4.00;99.90;;;;;;5088356;28;20289;-73
2021/03/02 00:20:36;;;;;;;24.05;11.27;;;4.00;99.90;;;;;;5093740;28;20204;-73
2021/03/02 00:23:07;;;;;;;23.73;11.18;;;4.00;99.90;;;;;;5094151;28;20982;-73
2021/03/02 00:25:36;;;;;;;22.05;11.68;;;4.00;99.90;;;;;;5092926;28;20252;-73
2021/03/02 00:28:05;;;;;;;18.35;10.50;;;4.00;99.90;;;;;;5092576;28;20239;-73
2021/03/02 00:30:33;;;;;;;16.55;10.90;;;3.90;99.90;;;;;;5096907;28;20634;-74
2021/03/02 00:33:01;;;;;;;23.00;11.82;;;3.80;99.90;;;;;;5088371;28;20200;-73
2021/03/02 00:35:28;;;;;;;20.95;11.70;;;3.70;99.90;;;;;;5088318;28;20205;-73
2021/03/02 00:37:54;;;;;;;21.48;10.77;;;3.80;99.90;;;;;;5092468;28;20234;-73
2021/03/02 00:40:22;;;;;;;21.45;12.00;;;3.70;99.90;;;;;;5088438;28;20208;-73
2021/03/02 00:42:49;;;;;;;21.00;11.77;;;3.60;99.90;;;;;;5090762;28;20219;-74
2021/03/02 00:45:16;;;;;;;23.63;11.88;;;3.70;99.90;;;;;;5093468;28;20224;-73
2021/03/02 00:47:43;;;;;;;17.33;11.40;;;3.60;99.90;;;;;;5087649;28;20220;-73
2021/03/02 00:50:10;;;;;;;22.83;11.10;;;3.60;99.90;;;;;;5087920;28;20201;-74
2021/03/02 00:52:37;;;;;;;19.88;10.68;;;3.60;99.90;;;;;;5089137;28;20577;-74
2021/03/02 00:55:06;;;;;;;18.67;10.63;;;3.60;99.90;;;;;;5097118;28;20207;-73
2021/03/02 00:57:33;;;;;;;17.45;10.45;;;3.60;99.90;;;;;;5105625;28;20203;-73
2021/03/02 01:00:00;;;;;;;22.98;12.20;;;3.50;99.90;;;;;;5100834;28;20205;-74
2021/03/02 01:02:26;;;;;;;17.30;10.63;;;3.50;99.90;;;;;;5087576;28;20205;-74
2021/03/02 01:04:53;;;;;;;24.80;12.10;;;3.50;99.90;;;;;;5087440;28;20240;-74
2021/03/02 01:07:20;;;;;;;20.90;11.65;;;3.40;99.90;;;;;;5087773;28;20203;-74
2021/03/02 01:09:46;;;;;;;21.10;10.48;;;3.40;99.90;;;;;;5086646;28;20267;-74
2021/03/02 01:12:12;;;;;;;19.63;12.10;;;3.40;99.90;;;;;;5087345;28;20203;-74
2021/03/02 01:14:40;;;;;;;23.05;11.10;;;3.40;99.90;;;;;;5087548;28;20227;-73
2021/03/02 01:17:07;;;;;;;17.73;9.95;;;3.40;99.90;;;;;;5095148;28;20200;-73
2021/03/02 01:19:33;;;;;;;19.10;11.10;;;3.30;99.90;;;;;;5093487;28;20200;-74
2021/03/02 01:22:00;;;;;;;18.23;11.38;;;3.30;99.90;;;;;;5087625;28;20867;-73
2021/03/02 01:24:26;;;;;;;20.23;11.95;;;3.30;99.90;;;;;;5093403;28;20220;-73
2021/03/02 01:26:53;;;;;;;24.95;11.32;;;3.30;99.90;;;;;;5087446;28;20208;-74
2021/03/02 01:29:19;;;;;;;19.48;10.65;;;3.30;99.90;;;;;;5093360;28;20220;-74
2021/03/02 01:31:47;;;;;;;20.92;11.00;;;3.20;99.90;;;;;;5092700;28;20208;-74
2021/03/02 01:34:13;;;;;;;22.20;11.77;;;3.20;99.90;;;;;;5086812;28;20262;-73
2021/03/02 01:36:40;;;;;;;20.02;10.65;;;3.20;99.90;;;;;;5087255;28;20204;-74
2021/03/02 01:39:06;;;;;;;20.85;11.45;;;3.20;99.90;;;;;;5087108;28;20200;-73
2021/03/02 01:41:33;;;;;;;15.30;9.60;;;3.20;99.90;;;;;;5086868;28;20204;-74
2021/03/02 01:43:59;;;;;;;19.38;11.05;;;3.10;99.90;;;;;;5087196;28;20204;-74
2021/03/02 01:46:26;;;;;;;15.73;9.85;;;3.20;99.90;;;;;;5086552;28;20205;-74
2021/03/02 01:48:53;;;;;;;18.25;10.00;;;3.10;99.90;;;;;;5086588;28;20550;-73
2021/03/02 01:51:20;;;;;;;24.33;11.85;;;3.10;99.90;;;;;;5086312;28;20254;-74
2021/03/02 01:53:46;;;;;;;18.90;10.63;;;3.10;99.90;;;;;;5086798;28;20250;-74
2021/03/02 01:56:13;;;;;;;17.00;10.35;;;3.10;99.90;;;;;;5093598;28;20212;-73
2021/03/02 01:58:40;;;;;;;14.77;9.40;;;3.10;99.90;;;;;;5086093;28;20201;-74
2021/03/02 02:01:08;;;;;;;20.30;11.27;;;3.00;99.90;;;;;;5092980;28;20200;-74
2021/03/02 02:03:43;;;;;;;17.08;9.13;;;3.00;99.90;;;;;;5086113;28;20232;-73
2021/03/02 02:06:16;;;;;;;18.33;9.10;;;3.00;99.90;;;;;;5089946;28;20203;-73
2021/03/02 02:08:49;;;;;;;19.40;11.02;;;3.00;99.90;;;;;;5086689;28;20204;-73
2021/03/02 02:11:31;;;;;;;21.20;9.57;;;3.00;99.90;;;;;;5086182;28;20201;-73
2021/03/02 02:14:06;;;;;;;19.05;10.23;;;3.00;99.90;;;;;;5095517;28;20204;-73
2021/03/02 02:16:36;;;;;;;18.83;10.68;;;2.90;99.90;;;;;;5090203;28;20260;-73
2021/03/02 02:19:05;;;;;;;16.40;9.20;;;3.00;99.90;;;;;;5091710;28;20230;-73
2021/03/02 02:21:44;;;;;;;17.23;9.93;;;3.00;99.90;;;;;;5086651;28;20235;-74
2021/03/02 02:24:18;;;;;;;23.42;9.00;;;2.90;99.90;;;;;;5090244;28;20278;-74
2021/03/02 02:26:56;;;;;;;18.85;10.30;;;2.90;99.90;;;;;;5092540;28;20204;-74
2021/03/02 02:29:26;;;;;;;22.75;10.50;;;3.00;99.90;;;;;;5093301;28;20626;-74
2021/03/02 02:31:55;;;;;;;15.45;10.10;;;2.90;99.90;;;;;;5088128;28;20201;-74
2021/03/02 02:34:23;;;;;;;15.60;9.63;;;3.00;99.90;;;;;;5089877;28;20270;-73
2021/03/02 02:36:52;;;;;;;18.95;10.00;;;3.00;99.90;;;;;;5090239;28;20552;-73
2021/03/02 02:39:20;;;;;;;21.70;10.73;;;2.90;99.90;;;;;;5085942;28;20204;-74
2021/03/02 02:41:49;;;;;;;16.70;9.60;;;2.90;99.90;;;;;;5085675;28;20200;-74
2021/03/02 02:44:18;;;;;;;13.95;8.10;;;2.90;99.90;;;;;;5093220;28;20277;-74
2021/03/02 02:46:45;;;;;;;18.92;9.35;;;2.80;99.90;;;;;;5091875;28;20195;-74
2021/03/02 02:49:14;;;;;;;16.50;9.88;;;2.80;99.90;;;;;;5089626;28;20204;-73
2021/03/02 02:51:41;;;;;;;20.83;9.77;;;2.80;99.90;;;;;;5091407;28;20197;-73
2021/03/02 02:54:08;;;;;;;15.10;10.35;;;2.80;99.90;;;;;;5085377;28;20197;-74
2021/03/02 02:56:37;;;;;;;14.98;9.02;;;2.80;99.90;;;;;;5091944;28;20195;-74
2021/03/02 02:59:08;;;;;;;27.63;11.18;;;2.80;99.90;;;;;;5086256;28;20200;-74
2021/03/02 03:01:41;;;;;;;19.58;10.27;;;2.70;99.90;;;;;;5084821;28;20200;-74
2021/03/02 03:04:11;;;;;;;17.58;9.80;;;2.70;99.90;;;;;;5094654;28;20231;-74
2021/03/02 03:06:41;;;;;;;15.55;8.98;;;2.70;99.90;;;;;;5085266;28;20223;-74
2021/03/02 03:09:08;;;;;;;15.90;9.50;;;2.70;99.90;;;;;;5097127;28;20201;-74
2021/03/02 03:11:42;;;;;;;17.08;11.10;;;2.70;99.90;;;;;;5091717;28;20203;-74
2021/03/02 03:14:13;;;;;;;17.70;9.50;;;2.70;99.90;;;;;;5090511;28;20203;-74
2021/03/02 03:16:41;;;;;;;16.55;9.75;;;2.60;99.90;;;;;;5085828;28;20204;-74
2021/03/02 03:19:09;;;;;;;22.50;9.68;;;2.60;99.90;;;;;;5085706;28;20254;-74
2021/03/02 03:21:36;;;;;;;16.77;10.10;;;2.60;99.90;;;;;;5090724;28;20240;-74
2021/03/02 03:24:04;;;;;;;16.05;10.23;;;2.60;99.90;;;;;;5085382;28;20200;-73
2021/03/02 03:26:34;;;;;;;21.13;11.05;;;2.60;99.90;;;;;;5090768;28;20201;-73
2021/03/02 03:29:02;;;;;;;21.27;9.23;;;2.60;99.90;;;;;;5085555;28;20224;-73
2021/03/02 03:31:31;;;;;;;21.42;10.75;;;2.50;99.90;;;;;;5085705;28;20201;-74
2021/03/02 03:33:59;;;;;;;15.88;8.23;;;2.50;99.90;;;;;;5088790;28;20612;-74
2021/03/02 03:36:28;;;;;;;18.27;9.48;;;2.50;99.90;;;;;;5092988;28;20192;-74
2021/03/02 03:38:54;;;;;;;18.17;10.50;;;2.60;99.90;;;;;;5085510;28;20208;-74
2021/03/02 03:41:21;;;;;;;18.17;10.32;;;2.50;99.90;;;;;;5085414;28;20196;-74
2021/03/02 03:43:48;;;;;;;24.83;12.52;;;2.50;99.90;;;;;;5089473;28;20208;-73
2021/03/02 03:46:14;;;;;;;19.38;10.60;;;2.40;99.90;;;;;;5097808;28;20232;-74
2021/03/02 03:48:42;;;;;;;21.50;10.48;;;2.40;99.90;;;;;;5089073;28;20696;-74
2021/03/02 03:51:09;;;;;;;16.02;10.15;;;2.50;99.90;;;;;;5088796;28;20249;-73
2021/03/02 03:53:38;;;;;;;19.63;11.02;;;2.40;99.90;;;;;;5097637;28;20197;-74
2021/03/02 03:56:06;;;;;;;20.25;11.63;;;2.40;99.90;;;;;;5088902;28;20209;-74
2021/03/02 03:58:33;;;;;;;18.25;10.13;;;2.40;99.90;;;;;;5088663;28;20227;-73
2021/03/02 04:01:02;;;;;;;19.40;11.13;;;2.40;99.90;;;;;;5093957;28;20205;-73
2021/03/02 04:03:32;;;;;;;16.73;10.02;;;2.40;99.90;;;;;;5094010;28;20237;-73
2021/03/02 04:06:00;;;;;;;17.67;10.00;;;2.40;99.90;;;;;;5094549;28;20581;-74
2021/03/02 04:08:27;;;;;;;16.77;9.30;;;2.40;99.90;;;;;;5095113;28;20196;-74
2021/03/02 04:10:55;;;;;;;15.75;9.18;;;2.40;99.90;;;;;;5090920;28;20204;-73
2021/03/02 04:13:21;;;;;;;15.65;9.98;;;2.40;99.90;;;;;;5088602;28;20227;-74
2021/03/02 04:15:48;;;;;;;15.10;9.88;;;2.30;99.90;;;;;;5088095;28;20212;-73
2021/03/02 04:18:16;;;;;;;19.30;11.10;;;2.40;99.90;;;;;;5093970;28;20230;-74
2021/03/02 04:20:44;;;;;;;17.30;9.13;;;2.40;99.90;;;;;;5100015;28;20205;-73
2021/03/02 04:23:12;;;;;;;18.10;10.50;;;2.40;99.90;;;;;;5087805;28;20197;-73
2021/03/02 04:25:39;;;;;;;14.90;9.82;;;2.40;99.90;;;;;;5088353;28;20231;-73
2021/03/02 04:28:06;;;;;;;16.95;10.30;;;2.30;99.90;;;;;;5088525;28;20196;-73
2021/03/02 04:30:33;;;;;;;16.88;10.48;;;2.30;99.90;;;;;;5092687;28;20216;-73
2021/03/02 04:33:00;;;;;;;17.20;9.38;;;2.30;99.90;;;;;;5088267;28;20260;-73
2021/03/02 04:35:26;;;;;;;17.73;10.35;;;2.30;99.90;;;;;;5094689;28;20216;-74
2021/03/02 04:37:53;;;;;;;19.27;10.23;;;2.30;99.90;;;;;;5088937;28;20212;-73
2021/03/02 04:40:20;;;;;;;17.58;9.13;;;2.30;99.90;;;;;;5088185;28;20200;-73
2021/03/02 04:42:47;;;;;;;19.73;9.93;;;2.30;99.90;;;;;;5092198;28;20207;-73
2021/03/02 04:45:15;;;;;;;16.00;10.50;;;2.30;99.90;;;;;;5087877;28;20238;-73
2021/03/02 04:47:43;;;;;;;16.83;10.90;;;2.30;99.90;;;;;;5091332;28;20594;-73
2021/03/02 04:50:12;;;;;;;14.00;8.55;;;2.30;99.90;;;;;;5091028;28;20205;-73
2021/03/02 04:52:39;;;;;;;16.30;9.57;;;2.30;99.90;;;;;;5091919;28;20567;-74
2021/03/02 04:55:07;;;;;;;17.70;9.82;;;2.20;99.90;;;;;;5092792;28;20201;-73
2021/03/02 04:57:34;;;;;;;16.50;9.13;;;2.20;99.90;;;;;;5087302;28;20197;-74
2021/03/02 05:00:01;;;;;;;13.30;8.02;;;2.20;99.90;;;;;;5096749;28;20200;-73
2021/03/02 05:02:28;;;;;;;18.63;7.40;;;2.20;99.90;;;;;;5086811;28;20227;-73
2021/03/02 05:04:54;;;;;;;15.63;8.60;;;2.20;99.90;;;;;;5086862;28;20228;-73
2021/03/02 05:07:21;;;;;;;16.98;9.52;;;2.20;99.90;;;;;;5088080;28;20201;-73
2021/03/02 05:09:47;;;;;;;15.48;8.90;;;2.10;99.90;;;;;;5100931;28;20200;-73
2021/03/02 05:12:14;;;;;;;22.73;10.95;;;2.10;99.90;;;;;;5090230;28;20196;-73
2021/03/02 05:14:41;;;;;;;17.20;10.57;;;2.10;99.90;;;;;;5089547;28;20200;-73
2021/03/02 05:17:08;;;;;;;14.77;9.07;;;2.10;99.90;;;;;;5087202;28;20223;-73
2021/03/02 05:19:34;;;;;;;14.38;8.60;;;2.10;99.90;;;;;;5087173;28;20192;-73
2021/03/02 05:22:01;;;;;;;18.05;9.73;;;2.10;99.90;;;;;;5087247;28;20227;-73
2021/03/02 05:24:27;;;;;;;19.55;10.80;;;2.10;99.90;;;;;;5086590;28;20227;-73
2021/03/02 05:26:54;;;;;;;15.45;9.68;;;2.10;99.90;;;;;;5095623;28;20200;-73
2021/03/02 05:29:20;;;;;;;18.23;9.88;;;2.10;99.90;;;;;;5086998;28;20200;-73
2021/03/02 05:31:47;;;;;;;18.08;10.43;;;2.10;99.90;;;;;;5093849;28;20257;-73
2021/03/02 05:34:14;;;;;;;18.80;10.10;;;2.10;99.90;;;;;;5086365;28;20207;-73
2021/03/02 05:36:41;;;;;;;22.27;10.05;;;2.00;99.90;;;;;;5090444;28;20231;-73
2021/03/02 05:39:07;;;;;;;14.65;9.43;;;2.00;99.90;;;;;;5090317;28;20253;-73
2021/03/02 05:41:35;;;;;;;18.67;9.50;;;1.90;99.90;;;;;;5086996;28;20193;-73
2021/03/02 05:44:01;;;;;;;16.15;9.65;;;1.80;99.90;;;;;;5086991;28;20204;-73
2021/03/02 05:46:28;;;;;;;15.90;9.70;;;1.90;99.90;;;;;;5089640;28;20228;-73
2021/03/02 05:48:56;;;;;;;14.73;9.20;;;1.90;99.90;;;;;;5100737;28;20204;-73
2021/03/02 05:51:23;;;;;;;14.07;8.63;;;1.90;99.90;;;;;;5092067;28;20207;-73
2021/03/02 05:53:50;;;;;;;16.58;9.48;;;1.90;99.90;;;;;;5095402;28;20200;-73
2021/03/02 05:56:17;;;;;;;15.45;10.00;;;1.80;99.90;;;;;;5086325;28;20200;-73
2021/03/02 05:58:44;;;;;;;17.02;10.48;;;1.80;99.90;;;;;;5086654;28;20204;-73
2021/03/02 06:01:10;;;;;;;19.88;10.38;;;1.90;99.90;;;;;;5086760;28;20696;-73
2021/03/02 06:03:37;;;;;;;17.10;10.38;;;1.90;99.90;;;;;;5090772;28;20227;-73
2021/03/02 06:06:05;;;;;;;21.40;10.07;;;1.80;99.90;;;;;;5095781;28;20235;-73
2021/03/02 06:08:32;;;;;;;23.48;11.55;;;1.70;99.90;;;;;;5085631;28;20200;-73
2021/03/02 06:11:22;;;;;;;19.45;10.73;;;1.70;99.90;;;;;;5086244;28;20545;-73
2021/03/02 06:13:49;;;;;;;15.77;9.73;;;1.70;99.90;;;;;;5086659;28;20226;-73
2021/03/02 06:16:16;;;;;;;20.10;10.15;;;1.80;99.90;;;;;;5086441;28;20227;-73
2021/03/02 06:18:48;;;;;;;14.98;9.52;;;1.90;99.90;;;;;;5085673;28;20208;-73
2021/03/02 06:21:15;;;;;;;16.33;10.38;;;1.90;99.90;;;;;;5086116;28;20235;-73
2021/03/02 06:23:50;;;;;;;20.75;10.85;;;1.90;99.90;;;;;;5086453;28;20653;-73
2021/03/02 06:26:24;;;;;;;17.23;9.50;;;2.00;99.90;;;;;;5085839;28;20234;-73
2021/03/02 06:28:52;;;;;;;16.80;10.43;;;2.00;99.90;;;;;;5086271;28;20236;-73
2021/03/02 06:31:33;;;;;;;14.48;8.35;;;2.00;99.90;;;;;;5085332;28;20197;-73
2021/03/02 06:34:07;;;;;;;18.00;9.95;;;2.00;99.90;;;;;;5085689;28;20196;-73
2021/03/02 06:36:35;;;;;;;14.88;9.05;;;2.00;99.90;;;;;;5084902;28;20206;-73
2021/03/02 06:39:21;;;;;;;16.48;8.82;;;2.00;99.90;;;;;;5087810;28;20322;-73
2021/03/02 06:41:48;;;;;;;15.13;9.20;;;2.00;99.90;;;;;;5084768;28;20236;-73
2021/03/02 06:44:15;;;;;;;20.13;10.02;;;2.00;99.90;;;;;;5091061;28;20200;-73
2021/03/02 06:46:42;;;;;;;18.40;10.48;;;2.00;99.90;;;;;;5084414;28;20445;-73
2021/03/02 06:49:10;;;;;;;19.08;10.15;;;2.10;99.90;;;;;;5092659;28;20204;-73
2021/03/02 06:51:40;;;;;;;17.02;10.07;;;2.10;99.90;;;;;;5085555;28;20205;-72
2021/03/02 06:54:08;;;;;;;31.08;11.05;;;2.10;99.90;;;;;;5085684;28;20205;-73
2021/03/02 06:56:37;;;;;;;16.80;10.38;;;2.20;99.90;;;;;;5085421;28;20208;-73
2021/03/02 06:59:15;;;;;;;15.45;9.60;;;2.10;99.90;;;;;;5090288;28;20205;-73
2021/03/02 07:01:44;;;;;;;13.98;8.82;;;2.20;99.90;;;;;;5088486;28;20611;-74
2021/03/02 07:04:12;;;;;;;16.95;9.50;;;2.20;99.90;;;;;;5085217;28;20249;-73
2021/03/02 07:06:42;;;;;;;13.55;8.88;;;2.20;99.90;;;;;;5085477;28;20211;-73
2021/03/02 07:09:10;;;;;;;15.95;8.40;;;2.30;99.90;;;;;;5091833;28;20610;-73
2021/03/02 07:11:37;;;;;;;16.60;8.45;;;2.30;99.90;;;;;;5086222;28;20364;-73
2021/03/02 07:14:06;;;;;;;15.00;8.63;;;2.40;99.90;;;;;;5084393;28;20197;-73
2021/03/02 07:16:35;;;;;;;17.73;8.93;;;2.50;99.90;;;;;;5084578;28;20205;-73
2021/03/02 07:19:03;;;;;;;17.40;8.82;;;2.50;99.90;;;;;;5085349;28;20598;-74
2021/03/02 07:21:35;;;;;;;16.17;8.93;;;2.60;99.90;;;;;;5088800;28;20203;-74
2021/03/02 07:24:05;;;;;;;17.05;9.27;;;2.60;99.90;;;;;;5093356;28;20538;-73
2021/03/02 07:26:33;;;;;;;14.43;9.27;;;2.60;99.90;;;;;;5092574;28;20318;-73
2021/03/02 07:29:02;;;;;;;18.67;9.95;;;2.70;99.90;;;;;;5093453;28;20196;-73
2021/03/02 07:31:31;;;;;;;16.50;9.07;;;2.70;99.90;;;;;;5096183;28;20204;-73
2021/03/02 07:33:59;;;;;;;16.70;10.00;;;2.80;99.90;;;;;;5089466;28;20212;-73
2021/03/02 07:36:25;;;;;;;14.63;8.48;;;2.80;99.90;;;;;;5096408;28;20650;-73
2021/03/02 07:39:16;;;;;;;16.98;8.27;;;2.90;99.90;;;;;;5094743;28;20234;-75
2021/03/02 07:41:43;;;;;;;16.17;10.50;;;3.00;99.90;;;;;;5089480;28;20210;-73
2021/03/02 07:44:09;;;;;;;13.30;9.43;;;3.00;99.90;;;;;;5089466;28;20197;-73
2021/03/02 07:46:50;;;;;;;16.58;9.55;;;3.00;99.90;;;;;;5089234;28;20236;-73
2021/03/02 07:49:36;;;;;;;11.90;8.50;;;3.10;99.90;;;;;;5089868;28;20777;-73
2021/03/02 07:52:21;;;;;;;13.65;9.80;;;3.20;99.90;;;;;;5090931;28;20204;-73
2021/03/02 07:55:08;;;;;;;17.33;10.90;;;3.30;99.90;;;;;;5093419;28;20552;-73
2021/03/02 07:57:35;;;;;;;21.73;11.90;;;3.40;99.90;;;;;;5088472;28;20462;-73
2021/03/02 08:00:21;;;;;;;32.65;11.23;;;3.50;99.90;;;;;;5093684;28;20204;-73
2021/03/02 08:03:17;;;;;;;19.48;11.50;;;3.60;99.90;;;;;;5093148;28;20264;-73
2021/03/02 08:05:44;;;;;;;19.52;10.63;;;4.10;99.90;;;;;;5088125;28;20232;-73
2021/03/02 08:08:34;;;;;;;16.80;10.25;;;5.10;99.90;;;;;;5088588;28;20789;-73
2021/03/02 08:11:17;;;;;;;14.52;10.15;;;6.40;99.90;;;;;;5089130;28;20226;-73
2021/03/02 08:13:44;;;;;;;13.32;9.02;;;7.80;99.90;;;;;;5081408;28;20199;-73
2021/03/02 08:16:13;;;;;;;12.07;8.20;;;9.00;99.90;;;;;;5096214;28;20228;-73
2021/03/02 08:18:40;;;;;;;14.23;9.00;;;9.80;99.90;;;;;;5091338;28;20208;-73
2021/03/02 08:21:15;;;;;;;11.82;9.40;;;10.50;99.90;;;;;;5090580;28;20200;-73
2021/03/02 08:23:49;;;;;;;12.20;9.13;;;11.40;99.90;;;;;;5090851;28;20202;-74
2021/03/02 08:26:44;;;;;;;13.68;9.13;;;12.20;99.90;;;;;;5088374;28;20242;-73
2021/03/02 08:29:13;;;;;;;11.10;8.73;;;13.10;99.90;;;;;;5084048;28;20200;-74
2021/03/02 08:31:42;;;;;;;13.82;9.57;;;13.80;99.90;;;;;;5087931;28;20590;-73
2021/03/02 08:34:10;;;;;;;11.18;8.80;;;14.50;99.90;;;;;;5088514;28;20212;-74
2021/03/02 08:36:37;;;;;;;13.98;8.77;;;15.00;99.90;;;;;;5099300;28;20456;-74
2021/03/02 08:39:14;;;;;;;11.70;8.63;;;15.40;99.90;;;;;;5088162;28;20221;-74
2021/03/02 08:41:43;;;;;;;12.30;8.38;;;16.00;99.90;;;;;;5088434;28;20212;-74
2021/03/02 08:44:17;;;;;;;16.92;10.82;;;16.10;99.90;;;;;;5088207;28;20227;-74
2021/03/02 08:46:48;;;;;;;11.65;9.00;;;16.60;99.90;;;;;;5087604;28;20275;-73
2021/03/02 08:49:14;;;;;;;12.02;9.25;;;17.00;99.90;;;;;;5087660;28;20205;-74
2021/03/02 08:51:41;;;;;;;12.10;9.00;;;17.40;99.90;;;;;;5088125;28;20586;-74
2021/03/02 08:54:08;;;;;;;9.82;8.20;;;17.80;99.90;;;;;;5088448;28;20207;-74
2021/03/02 08:56:35;;;;;;;11.85;9.13;;;18.20;99.90;;;;;;5087732;28;20210;-74
2021/03/02 08:59:07;;;;;;;13.63;9.25;;;18.60;99.90;;;;;;5096486;28;20202;-74
2021/03/02 09:01:35;;;;;;;18.73;10.30;;;19.00;99.90;;;;;;5097021;28;20203;-74
2021/03/02 09:04:13;;;;;;;13.05;9.48;;;19.60;99.90;;;;;;5090733;28;20238;-74
2021/03/02 09:06:40;;;;;;;11.88;9.20;;;20.10;99.90;;;;;;5093877;28;20316;-74
2021/03/02 09:09:09;;;;;;;13.48;9.93;;;20.70;99.90;;;;;;5088244;28;20218;-74
2021/03/02 09:11:37;;;;;;;15.32;11.10;;;21.20;99.90;;;;;;5087870;28;20211;-74
2021/03/02 09:14:06;;;;;;;17.77;8.98;;;21.40;99.90;;;;;;5087656;28;20219;-74
2021/03/02 09:16:38;;;;;;;14.80;8.93;;;21.80;99.90;;;;;;5092198;28;20209;-74
2021/03/02 09:19:24;;;;;;;11.77;7.80;;;22.30;99.80;;;;;;5086411;28;20203;-74
2021/03/02 09:22:02;;;;;;;7.43;6.13;;;22.90;97.40;;;;;;5086631;28;20893;-74
2021/03/02 09:24:30;;;;;;;14.05;7.00;;;23.40;94.70;;;;;;5093622;28;20214;-74
2021/03/02 09:27:00;;;;;;;8.57;6.22;;;23.50;92.60;;;;;;5087179;28;20681;-74
2021/03/02 09:29:29;;;;;;;7.80;6.40;;;23.60;92.40;;;;;;5090852;28;20209;-74
2021/03/02 09:31:58;;;;;;;9.65;6.68;;;24.00;91.30;;;;;;5096669;28;20211;-74
2021/03/02 09:34:35;;;;;;;10.18;7.18;;;24.30;89.00;;;;;;5093364;28;20205;-74
2021/03/02 09:37:07;;;;;;;10.82;6.57;;;24.40;87.90;;;;;;5092108;28;20292;-75
2021/03/02 09:39:34;;;;;;;8.73;6.05;;;24.30;84.10;;;;;;5091477;28;20244;-75
2021/03/02 09:42:01;;;;;;;11.85;6.60;;;24.10;84.40;;;;;;5091675;28;20221;-75
2021/03/02 09:44:34;;;;;;;10.57;6.85;;;24.30;85.50;;;;;;5085890;28;20203;-75
2021/03/02 09:47:04;;;;;;;9.40;6.18;;;24.50;85.10;;;;;;5089550;28;20225;-75
2021/03/02 09:49:41;;;;;;;11.10;7.07;;;24.90;83.50;;;;;;5091525;28;20203;-74
2021/03/02 09:52:28;;;;;;;12.95;7.03;;;25.00;81.30;;;;;;5087575;28;20266;-74
2021/03/02 09:55:23;;;;;;;7.93;6.13;;;25.20;79.10;;;;;;5086340;28;20224;-72
2021/03/02 09:57:52;;;;;;;13.68;6.50;;;25.40;76.80;;;;;;5086325;28;20205;-71
2021/03/02 10:00:25;;;;;;;8.82;6.22;;;25.40;78.20;;;;;;5085381;28;20206;-71
2021/03/02 10:02:53;;;;;;;13.65;6.15;;;25.20;74.60;;;;;;5085938;28;20206;-74
2021/03/02 10:05:36;;;;;;;10.40;6.65;;;24.60;74.10;;;;;;5090442;28;20606;-72
2021/03/02 10:08:21;;;;;;;8.82;6.20;;;24.20;73.80;;;;;;5085966;28;20194;-72
2021/03/02 10:10:49;;;;;;;7.50;5.88;;;23.30;74.20;;;;;;5085377;28;20202;-72
2021/03/02 10:13:22;;;;;;;11.57;7.18;;;22.80;73.80;;;;;;5086047;28;20193;-72
2021/03/02 10:15:50;;;;;;;9.75;6.55;;;22.10;73.50;;;;;;5085322;28;20230;-72
2021/03/02 10:18:24;;;;;;;10.48;6.70;;;21.40;74.60;;;;;;5089547;28;20203;-72
2021/03/02 10:21:05;;;;;;;10.77;6.28;;;20.80;75.60;;;;;;5085240;28;20202;-71
2021/03/02 10:23:32;;;;;;;12.90;7.03;;;20.30;74.60;;;;;;5084724;28;21027;-72
2021/03/02 10:25:59;;;;;;;12.82;6.85;;;19.90;77.50;;;;;;5085672;28;20575;-72
2021/03/02 10:28:30;;;;;;;11.38;6.65;;;19.70;77.50;;;;;;5094664;28;20216;-72
2021/03/02 10:30:58;;;;;;;10.98;6.97;;;19.70;78.60;;;;;;5091783;28;20207;-72
2021/03/02 10:33:24;;;;;;;9.85;7.05;;;19.60;77.90;;;;;;5093465;28;20230;-72
2021/03/02 10:35:51;;;;;;;10.80;7.15;;;19.50;79.00;;;;;;5093300;28;20301;-72
2021/03/02 10:38:17;;;;;;;10.63;6.80;;;19.30;76.70;;;;;;5090146;28;20206;-74
2021/03/02 10:40:44;;;;;;;14.13;7.68;;;19.30;79.50;;;;;;5085808;28;20552;-74
2021/03/02 10:43:10;;;;;;;12.80;6.57;;;19.20;77.20;;;;;;5089745;28;20202;-72
2021/03/02 10:45:37;;;;;;;11.27;6.35;;;19.00;78.80;;;;;;5085334;28;20276;-72
2021/03/02 10:48:05;;;;;;;12.52;7.38;;;19.10;79.30;;;;;;5090350;28;20208;-71
2021/03/02 10:50:32;;;;;;;14.25;7.28;;;19.30;79.10;;;;;;5085671;28;20206;-71
2021/03/02 10:52:59;;;;;;;10.07;7.28;;;19.30;77.70;;;;;;5085169;28;20310;-72
2021/03/02 10:55:26;;;;;;;9.90;6.85;;;19.20;78.00;;;;;;5086106;28;20352;-72
2021/03/02 10:57:52;;;;;;;9.00;7.03;;;19.10;78.00;;;;;;5085874;28;20206;-71
2021/03/02 11:00:20;;;;;;;13.80;8.30;;;19.00;77.00;;;;;;5085324;28;20194;-71
2021/03/02 11:05:11;;;;;;;11.38;7.78;;;18.80;77.00;;;;;;5106305;27;20587;-73
2021/03/02 11:10:19;;;;;;;12.57;7.20;;;18.60;79.20;;;;;;5102166;28;20203;-73
2021/03/02 11:12:46;;;;;;;12.15;6.72;;;18.60;79.50;;;;;;5110112;28;20213;-73
2021/03/02 11:17:53;;;;;;;13.88;7.07;;;18.50;78.90;;;;;;5106909;28;20217;-73
2021/03/02 11:20:21;;;;;;;10.05;7.13;;;18.30;80.10;;;;;;5102707;28;20200;-75
2021/03/02 11:22:47;;;;;;;13.13;6.80;;;18.10;81.50;;;;;;5102783;28;20234;-72
2021/03/02 11:25:18;;;;;;;9.50;6.53;;;17.90;80.10;;;;;;5102330;28;20203;-72
2021/03/02 11:27:46;;;;;;;11.98;7.00;;;17.70;80.00;;;;;;5108849;28;20226;-74
2021/03/02 11:30:14;;;;;;;11.50;6.80;;;17.50;79.60;;;;;;5104719;28;20225;-73
2021/03/02 11:32:40;;;;;;;14.57;7.82;;;17.40;82.30;;;;;;5109477;28;20206;-72
2021/03/02 11:35:08;;;;;;;11.18;7.28;;;17.30;81.30;;;;;;5107745;28;20201;-72
2021/03/02 11:37:37;;;;;;;11.45;7.43;;;17.20;80.20;;;;;;5107323;28;20206;-72
2021/03/02 11:40:06;;;;;;;14.70;8.15;;;17.00;80.40;;;;;;5102551;28;20238;-73
2021/03/02 11:42:32;;;;;;;13.90;7.75;;;16.90;80.60;;;;;;5105716;28;20569;-72
2021/03/02 11:45:00;;;;;;;11.73;7.88;;;16.80;79.90;;;;;;5105687;28;20248;-72
2021/03/02 11:47:27;;;;;;;12.98;7.53;;;16.70;81.10;;;;;;5106676;28;20196;-72
2021/03/02 11:49:54;;;;;;;15.23;7.30;;;16.60;81.90;;;;;;5101999;28;20225;-72
2021/03/02 11:52:21;;;;;;;9.25;6.70;;;16.60;82.30;;;;;;5102022;28;20234;-72
2021/03/02 11:54:49;;;;;;;13.18;8.20;;;16.70;82.10;;;;;;5106523;28;20209;-72
2021/03/02 11:57:16;;;;;;;14.35;7.25;;;16.70;82.00;;;;;;5105840;28;20304;-73
2021/03/02 11:59:43;;;;;;;14.00;7.70;;;16.60;81.70;;;;;;5111273;28;20213;-74
2021/03/02 12:02:10;;;;;;;16.02;9.02;;;16.70;82.20;;;;;;5102429;28;20237;-74
2021/03/02 12:04:36;;;;;;;10.65;7.47;;;16.70;83.90;;;;;;5101811;28;20275;-74
2021/03/02 12:07:03;;;;;;;12.32;7.63;;;16.70;82.10;;;;;;5101871;28;20213;-74
2021/03/02 12:09:31;;;;;;;13.77;7.55;;;16.70;82.30;;;;;;5101818;28;20506;-74
2021/03/02 12:11:58;;;;;;;13.48;7.18;;;16.70;83.40;;;;;;5104538;28;20197;-71
2021/03/02 12:14:25;;;;;;;12.52;7.32;;;16.70;82.80;;;;;;5111484;28;20199;-74
2021/03/02 12:16:51;;;;;;;14.48;7.70;;;16.70;85.60;;;;;;5089061;28;20205;-74
2021/03/02 12:19:18;;;;;;;12.50;7.55;;;16.70;83.20;;;;;;5091386;28;20207;-74
2021/03/02 12:21:44;;;;;;;13.85;7.43;;;16.70;83.00;;;;;;5087344;28;20203;-74
2021/03/02 12:24:11;;;;;;;16.00;8.43;;;16.80;82.80;;;;;;5087580;28;20254;-74
2021/03/02 12:26:38;;;;;;;14.48;8.27;;;16.80;80.70;;;;;;5091924;28;20212;-74
2021/03/02 12:29:07;;;;;;;13.25;7.38;;;16.70;80.80;;;;;;5095033;28;20202;-74
2021/03/02 12:31:33;;;;;;;16.77;8.15;;;16.70;81.20;;;;;;5092265;28;20202;-78
2021/03/02 12:34:00;;;;;;;16.95;9.55;;;16.80;80.10;;;;;;5088714;28;20442;-77
2021/03/02 12:36:27;;;;;;;17.50;8.93;;;16.70;80.70;;;;;;5088669;28;20202;-77
2021/03/02 12:38:53;;;;;;;15.68;7.63;;;16.70;80.80;;;;;;5088440;28;20210;-77
2021/03/02 12:41:20;;;;;;;14.65;8.32;;;16.70;81.30;;;;;;5093003;28;20203;-77
2021/03/02 12:43:47;;;;;;;12.35;7.60;;;16.70;80.60;;;;;;5088053;28;20227;-78
2021/03/02 12:46:14;;;;;;;14.43;8.05;;;16.70;81.90;;;;;;5095904;28;20243;-77
2021/03/02 12:48:41;;;;;;;15.43;8.63;;;16.80;82.40;;;;;;5097131;28;20202;-77
2021/03/02 12:51:08;;;;;;;15.85;8.75;;;16.80;82.20;;;;;;5102801;28;20194;-77
2021/03/02 12:53:34;;;;;;;15.15;8.10;;;16.80;81.30;;;;;;5097518;28;20202;-77
2021/03/02 12:56:01;;;;;;;20.77;8.63;;;16.80;81.70;;;;;;5096241;28;20216;-77
2021/03/02 12:58:27;;;;;;;16.98;7.97;;;16.80;80.10;;;;;;5088785;28;20202;-77